sensor_id;sensor_type;location;lat;lon;timestamp;P1;durP1;ratioP1;P2;durP2;ratioP2
68457;SDS011;65384;52.016;5.428;2023-06-10T00:01:38;14.32;;;8.85;;
68457;SDS011;65384;52.016;5.428;2023-06-10T00:04:04;17.77;;;9.20;;
68457;SDS011;65384;52.016;5.428;2023-06-10T00:06:30;12.20;;;8.77;;
68457;SDS011;65384;52.016;5.428;2023-06-10T00:09:00;12.13;;;8.65;;
68457;SDS011;65384;52.016;5.428;2023-06-10T00:11:26;11.98;;;8.52;;
68457;SDS011;65384;52.016;5.428;2023-06-10T00:13:51;12.63;;;8.43;;
68457;SDS011;65384;52.016;5.428;2023-06-10T00:16:16;12.70;;;8.40;;
68457;SDS011;65384;52.016;5.428;2023-06-10T00:18:42;13.60;;;8.65;;
68457;SDS011;65384;52.016;5.428;2023-06-10T00:21:09;12.85;;;8.10;;
68457;SDS011;65384;52.016;5.428;2023-06-10T00:23:34;11.73;;;8.07;;
68457;SDS011;65384;52.016;5.428;2023-06-10T00:26:03;11.63;;;8.05;;
68457;SDS011;65384;52.016;5.428;2023-06-10T00:28:29;11.80;;;8.20;;
68457;SDS011;65384;52.016;5.428;2023-06-10T00:30:54;12.23;;;8.27;;
68457;SDS011;65384;52.016;5.428;2023-06-10T00:33:20;13.57;;;8.10;;
68457;SDS011;65384;52.016;5.428;2023-06-10T00:35:46;11.05;;;7.60;;
68457;SDS011;65384;52.016;5.428;2023-06-10T00:38:13;12.00;;;8.25;;
68457;SDS011;65384;52.016;5.428;2023-06-10T00:40:39;13.60;;;8.00;;
68457;SDS011;65384;52.016;5.428;2023-06-10T00:43:05;11.43;;;8.18;;
68457;SDS011;65384;52.016;5.428;2023-06-10T00:45:31;12.05;;;7.50;;
68457;SDS011;65384;52.016;5.428;2023-06-10T00:47:56;12.43;;;7.65;;
68457;SDS011;65384;52.016;5.428;2023-06-10T00:50:22;10.63;;;7.50;;
68457;SDS011;65384;52.016;5.428;2023-06-10T00:52:48;11.77;;;7.15;;
68457;SDS011;65384;52.016;5.428;2023-06-10T00:55:13;13.75;;;7.63;;
68457;SDS011;65384;52.016;5.428;2023-06-10T00:57:41;9.57;;;7.35;;
68457;SDS011;65384;52.016;5.428;2023-06-10T01:00:09;9.55;;;7.13;;
68457;SDS011;65384;52.016;5.428;2023-06-10T01:02:35;15.45;;;7.40;;
68457;SDS011;65384;52.016;5.428;2023-06-10T01:05:01;10.85;;;7.03;;
68457;SDS011;65384;52.016;5.428;2023-06-10T01:07:32;10.85;;;6.85;;
68457;SDS011;65384;52.016;5.428;2023-06-10T01:10:06;10.13;;;7.00;;
68457;SDS011;65384;52.016;5.428;2023-06-10T01:15:03;12.18;;;6.72;;
68457;SDS011;65384;52.016;5.428;2023-06-10T01:17:29;11.38;;;6.68;;
68457;SDS011;65384;52.016;5.428;2023-06-10T01:19:56;11.50;;;6.35;;
68457;SDS011;65384;52.016;5.428;2023-06-10T01:22:25;12.70;;;6.57;;
68457;SDS011;65384;52.016;5.428;2023-06-10T01:24:53;10.00;;;6.40;;
68457;SDS011;65384;52.016;5.428;2023-06-10T01:27:23;9.77;;;6.30;;
68457;SDS011;65384;52.016;5.428;2023-06-10T01:29:54;12.77;;;6.70;;
68457;SDS011;65384;52.016;5.428;2023-06-10T01:34:55;10.88;;;6.03;;
68457;SDS011;65384;52.016;5.428;2023-06-10T01:37:21;14.02;;;6.63;;
68457;SDS011;65384;52.016;5.428;2023-06-10T01:39:47;9.18;;;6.05;;
68457;SDS011;65384;52.016;5.428;2023-06-10T01:42:13;10.48;;;6.47;;
68457;SDS011;65384;52.016;5.428;2023-06-10T01:44:39;10.23;;;5.88;;
68457;SDS011;65384;52.016;5.428;2023-06-10T01:47:05;10.95;;;6.15;;
68457;SDS011;65384;52.016;5.428;2023-06-10T01:49:30;9.18;;;6.20;;
68457;SDS011;65384;52.016;5.428;2023-06-10T01:51:55;11.68;;;5.78;;
68457;SDS011;65384;52.016;5.428;2023-06-10T01:54:21;8.27;;;5.90;;
68457;SDS011;65384;52.016;5.428;2023-06-10T01:56:46;9.35;;;5.80;;
68457;SDS011;65384;52.016;5.428;2023-06-10T01:59:11;10.82;;;5.90;;
68457;SDS011;65384;52.016;5.428;2023-06-10T02:01:37;10.05;;;5.90;;
68457;SDS011;65384;52.016;5.428;2023-06-10T02:04:02;11.73;;;5.68;;
68457;SDS011;65384;52.016;5.428;2023-06-10T02:06:28;8.98;;;5.90;;
68457;SDS011;65384;52.016;5.428;2023-06-10T02:08:53;10.20;;;5.82;;
68457;SDS011;65384;52.016;5.428;2023-06-10T02:11:19;8.95;;;5.72;;
68457;SDS011;65384;52.016;5.428;2023-06-10T02:13:44;8.90;;;5.63;;
68457;SDS011;65384;52.016;5.428;2023-06-10T02:16:09;10.43;;;5.68;;
68457;SDS011;65384;52.016;5.428;2023-06-10T02:18:38;9.38;;;5.55;;
68457;SDS011;65384;52.016;5.428;2023-06-10T02:21:05;10.23;;;5.63;;
68457;SDS011;65384;52.016;5.428;2023-06-10T02:23:31;10.98;;;5.43;;
68457;SDS011;65384;52.016;5.428;2023-06-10T02:25:57;9.98;;;5.68;;
68457;SDS011;65384;52.016;5.428;2023-06-10T02:28:22;14.13;;;5.72;;
68457;SDS011;65384;52.016;5.428;2023-06-10T02:30:48;9.98;;;5.57;;
68457;SDS011;65384;52.016;5.428;2023-06-10T02:33:13;9.50;;;5.40;;
68457;SDS011;65384;52.016;5.428;2023-06-10T02:35:39;12.68;;;5.32;;
68457;SDS011;65384;52.016;5.428;2023-06-10T02:38:04;8.43;;;5.35;;
68457;SDS011;65384;52.016;5.428;2023-06-10T02:40:30;8.93;;;5.82;;
68457;SDS011;65384;52.016;5.428;2023-06-10T02:42:55;8.98;;;5.28;;
68457;SDS011;65384;52.016;5.428;2023-06-10T02:45:21;10.27;;;5.65;;
68457;SDS011;65384;52.016;5.428;2023-06-10T02:47:46;8.38;;;5.60;;
68457;SDS011;65384;52.016;5.428;2023-06-10T02:50:12;10.15;;;5.50;;
68457;SDS011;65384;52.016;5.428;2023-06-10T02:52:37;10.05;;;5.65;;
68457;SDS011;65384;52.016;5.428;2023-06-10T02:55:03;11.13;;;5.47;;
68457;SDS011;65384;52.016;5.428;2023-06-10T02:57:28;9.75;;;5.88;;
68457;SDS011;65384;52.016;5.428;2023-06-10T02:59:54;11.20;;;5.70;;
68457;SDS011;65384;52.016;5.428;2023-06-10T03:02:19;10.63;;;5.80;;
68457;SDS011;65384;52.016;5.428;2023-06-10T03:04:45;11.45;;;5.60;;
68457;SDS011;65384;52.016;5.428;2023-06-10T03:07:10;9.82;;;5.38;;
68457;SDS011;65384;52.016;5.428;2023-06-10T03:09:36;8.70;;;5.18;;
68457;SDS011;65384;52.016;5.428;2023-06-10T03:12:01;11.27;;;5.63;;
68457;SDS011;65384;52.016;5.428;2023-06-10T03:14:27;11.60;;;5.55;;
68457;SDS011;65384;52.016;5.428;2023-06-10T03:16:52;8.98;;;5.25;;
68457;SDS011;65384;52.016;5.428;2023-06-10T03:19:18;9.65;;;5.72;;
68457;SDS011;65384;52.016;5.428;2023-06-10T03:21:44;11.73;;;5.60;;
68457;SDS011;65384;52.016;5.428;2023-06-10T03:24:09;10.48;;;5.45;;
68457;SDS011;65384;52.016;5.428;2023-06-10T03:26:36;11.85;;;5.90;;
68457;SDS011;65384;52.016;5.428;2023-06-10T03:29:01;12.48;;;5.43;;
68457;SDS011;65384;52.016;5.428;2023-06-10T03:31:26;10.02;;;5.22;;
68457;SDS011;65384;52.016;5.428;2023-06-10T03:33:52;13.02;;;6.10;;
68457;SDS011;65384;52.016;5.428;2023-06-10T03:36:17;13.10;;;5.80;;
68457;SDS011;65384;52.016;5.428;2023-06-10T03:38:43;12.73;;;5.60;;
68457;SDS011;65384;52.016;5.428;2023-06-10T03:41:08;11.35;;;5.40;;
68457;SDS011;65384;52.016;5.428;2023-06-10T03:43:33;10.65;;;5.50;;
68457;SDS011;65384;52.016;5.428;2023-06-10T03:45:59;11.88;;;5.88;;
68457;SDS011;65384;52.016;5.428;2023-06-10T03:48:24;10.32;;;5.55;;
68457;SDS011;65384;52.016;5.428;2023-06-10T03:50:49;8.73;;;5.20;;
68457;SDS011;65384;52.016;5.428;2023-06-10T03:53:18;11.88;;;5.65;;
68457;SDS011;65384;52.016;5.428;2023-06-10T03:55:43;14.35;;;5.70;;
68457;SDS011;65384;52.016;5.428;2023-06-10T03:58:10;10.15;;;5.50;;
68457;SDS011;65384;52.016;5.428;2023-06-10T04:00:38;9.32;;;5.35;;
68457;SDS011;65384;52.016;5.428;2023-06-10T04:03:06;10.80;;;5.43;;
68457;SDS011;65384;52.016;5.428;2023-06-10T04:05:34;15.15;;;5.07;;
68457;SDS011;65384;52.016;5.428;2023-06-10T04:07:59;13.60;;;6.72;;
68457;SDS011;65384;52.016;5.428;2023-06-10T04:10:26;10.05;;;5.18;;
68457;SDS011;65384;52.016;5.428;2023-06-10T04:12:51;10.63;;;5.28;;
68457;SDS011;65384;52.016;5.428;2023-06-10T04:15:17;11.35;;;5.00;;
68457;SDS011;65384;52.016;5.428;2023-06-10T04:17:43;10.60;;;5.28;;
68457;SDS011;65384;52.016;5.428;2023-06-10T04:20:08;9.38;;;5.05;;
68457;SDS011;65384;52.016;5.428;2023-06-10T04:22:34;9.30;;;5.38;;
68457;SDS011;65384;52.016;5.428;2023-06-10T04:25:01;10.05;;;5.25;;
68457;SDS011;65384;52.016;5.428;2023-06-10T04:27:27;10.60;;;5.03;;
68457;SDS011;65384;52.016;5.428;2023-06-10T04:29:52;11.32;;;5.25;;
68457;SDS011;65384;52.016;5.428;2023-06-10T04:32:18;16.73;;;5.20;;
68457;SDS011;65384;52.016;5.428;2023-06-10T04:34:43;10.38;;;5.10;;
68457;SDS011;65384;52.016;5.428;2023-06-10T04:37:09;11.13;;;5.38;;
68457;SDS011;65384;52.016;5.428;2023-06-10T04:39:34;9.30;;;5.10;;
68457;SDS011;65384;52.016;5.428;2023-06-10T04:42:00;9.70;;;5.00;;
68457;SDS011;65384;52.016;5.428;2023-06-10T04:44:26;10.52;;;4.82;;
68457;SDS011;65384;52.016;5.428;2023-06-10T04:46:52;10.50;;;5.15;;
68457;SDS011;65384;52.016;5.428;2023-06-10T04:49:17;12.75;;;4.95;;
68457;SDS011;65384;52.016;5.428;2023-06-10T04:51:42;11.60;;;4.93;;
68457;SDS011;65384;52.016;5.428;2023-06-10T04:54:08;9.80;;;5.10;;
68457;SDS011;65384;52.016;5.428;2023-06-10T04:56:33;11.02;;;5.03;;
68457;SDS011;65384;52.016;5.428;2023-06-10T04:58:59;10.85;;;5.40;;
68457;SDS011;65384;52.016;5.428;2023-06-10T05:01:25;13.75;;;5.45;;
68457;SDS011;65384;52.016;5.428;2023-06-10T05:03:50;8.02;;;4.72;;
68457;SDS011;65384;52.016;5.428;2023-06-10T05:06:15;12.23;;;5.00;;
68457;SDS011;65384;52.016;5.428;2023-06-10T05:08:41;9.20;;;5.13;;
68457;SDS011;65384;52.016;5.428;2023-06-10T05:11:06;9.52;;;5.00;;
68457;SDS011;65384;52.016;5.428;2023-06-10T05:13:32;13.93;;;5.00;;
68457;SDS011;65384;52.016;5.428;2023-06-10T05:15:57;9.93;;;5.32;;
68457;SDS011;65384;52.016;5.428;2023-06-10T05:18:23;9.98;;;4.90;;
68457;SDS011;65384;52.016;5.428;2023-06-10T05:20:48;11.82;;;5.07;;
68457;SDS011;65384;52.016;5.428;2023-06-10T05:23:14;8.35;;;4.97;;
68457;SDS011;65384;52.016;5.428;2023-06-10T05:25:39;11.80;;;5.25;;
68457;SDS011;65384;52.016;5.428;2023-06-10T05:28:06;7.72;;;4.82;;
68457;SDS011;65384;52.016;5.428;2023-06-10T05:30:34;9.20;;;5.13;;
68457;SDS011;65384;52.016;5.428;2023-06-10T05:33:00;10.75;;;4.80;;
68457;SDS011;65384;52.016;5.428;2023-06-10T05:35:25;10.38;;;4.97;;
68457;SDS011;65384;52.016;5.428;2023-06-10T05:37:51;8.55;;;5.28;;
68457;SDS011;65384;52.016;5.428;2023-06-10T05:40:16;13.02;;;5.00;;
68457;SDS011;65384;52.016;5.428;2023-06-10T05:42:41;10.57;;;4.78;;
68457;SDS011;65384;52.016;5.428;2023-06-10T05:45:07;10.48;;;4.63;;
68457;SDS011;65384;52.016;5.428;2023-06-10T05:47:33;10.05;;;5.05;;
68457;SDS011;65384;52.016;5.428;2023-06-10T05:49:58;8.77;;;5.05;;
68457;SDS011;65384;52.016;5.428;2023-06-10T05:52:23;10.82;;;5.05;;
68457;SDS011;65384;52.016;5.428;2023-06-10T05:54:49;9.60;;;4.70;;
68457;SDS011;65384;52.016;5.428;2023-06-10T05:57:15;10.43;;;4.75;;
68457;SDS011;65384;52.016;5.428;2023-06-10T05:59:40;9.20;;;4.80;;
68457;SDS011;65384;52.016;5.428;2023-06-10T06:02:06;10.50;;;4.82;;
68457;SDS011;65384;52.016;5.428;2023-06-10T06:04:31;11.90;;;4.80;;
68457;SDS011;65384;52.016;5.428;2023-06-10T06:06:57;10.50;;;5.20;;
68457;SDS011;65384;52.016;5.428;2023-06-10T06:09:22;9.65;;;4.90;;
68457;SDS011;65384;52.016;5.428;2023-06-10T06:11:47;10.10;;;5.10;;
68457;SDS011;65384;52.016;5.428;2023-06-10T06:14:13;9.25;;;5.03;;
68457;SDS011;65384;52.016;5.428;2023-06-10T06:16:38;10.75;;;4.80;;
68457;SDS011;65384;52.016;5.428;2023-06-10T06:19:03;7.97;;;4.70;;
68457;SDS011;65384;52.016;5.428;2023-06-10T06:21:29;13.73;;;5.00;;
68457;SDS011;65384;52.016;5.428;2023-06-10T06:23:54;9.70;;;4.88;;
68457;SDS011;65384;52.016;5.428;2023-06-10T06:26:20;7.72;;;4.55;;
68457;SDS011;65384;52.016;5.428;2023-06-10T06:28:45;11.48;;;5.18;;
68457;SDS011;65384;52.016;5.428;2023-06-10T06:31:11;10.70;;;5.18;;
68457;SDS011;65384;52.016;5.428;2023-06-10T06:33:36;9.88;;;4.90;;
68457;SDS011;65384;52.016;5.428;2023-06-10T06:36:01;9.35;;;4.75;;
68457;SDS011;65384;52.016;5.428;2023-06-10T06:38:27;9.20;;;4.82;;
68457;SDS011;65384;52.016;5.428;2023-06-10T06:40:52;7.85;;;4.88;;
68457;SDS011;65384;52.016;5.428;2023-06-10T06:43:18;9.50;;;4.75;;
68457;SDS011;65384;52.016;5.428;2023-06-10T06:45:43;7.00;;;4.47;;
68457;SDS011;65384;52.016;5.428;2023-06-10T06:48:10;13.77;;;5.20;;
68457;SDS011;65384;52.016;5.428;2023-06-10T06:50:35;11.52;;;4.60;;
68457;SDS011;65384;52.016;5.428;2023-06-10T06:53:01;16.23;;;4.88;;
68457;SDS011;65384;52.016;5.428;2023-06-10T06:55:26;8.27;;;4.40;;
68457;SDS011;65384;52.016;5.428;2023-06-10T06:57:52;10.45;;;4.50;;
68457;SDS011;65384;52.016;5.428;2023-06-10T07:00:17;8.63;;;4.47;;
68457;SDS011;65384;52.016;5.428;2023-06-10T07:02:43;10.10;;;4.60;;
68457;SDS011;65384;52.016;5.428;2023-06-10T07:05:08;11.30;;;4.97;;
68457;SDS011;65384;52.016;5.428;2023-06-10T07:07:34;7.07;;;4.55;;
68457;SDS011;65384;52.016;5.428;2023-06-10T07:09:59;7.97;;;4.82;;
68457;SDS011;65384;52.016;5.428;2023-06-10T07:12:25;8.18;;;4.85;;
68457;SDS011;65384;52.016;5.428;2023-06-10T07:14:50;8.75;;;4.70;;
68457;SDS011;65384;52.016;5.428;2023-06-10T07:17:16;8.50;;;4.55;;
68457;SDS011;65384;52.016;5.428;2023-06-10T07:19:43;11.18;;;4.70;;
68457;SDS011;65384;52.016;5.428;2023-06-10T07:22:08;13.00;;;4.70;;
68457;SDS011;65384;52.016;5.428;2023-06-10T07:24:34;10.02;;;4.57;;
68457;SDS011;65384;52.016;5.428;2023-06-10T07:26:59;9.07;;;5.10;;
68457;SDS011;65384;52.016;5.428;2023-06-10T07:29:24;8.88;;;4.55;;
68457;SDS011;65384;52.016;5.428;2023-06-10T07:31:50;11.85;;;4.80;;
68457;SDS011;65384;52.016;5.428;2023-06-10T07:34:15;10.52;;;4.38;;
68457;SDS011;65384;52.016;5.428;2023-06-10T07:36:41;9.80;;;4.82;;
68457;SDS011;65384;52.016;5.428;2023-06-10T07:39:06;9.02;;;4.90;;
68457;SDS011;65384;52.016;5.428;2023-06-10T07:41:32;9.90;;;4.78;;
68457;SDS011;65384;52.016;5.428;2023-06-10T07:43:57;8.32;;;4.80;;
68457;SDS011;65384;52.016;5.428;2023-06-10T07:46:23;9.40;;;4.60;;
68457;SDS011;65384;52.016;5.428;2023-06-10T07:48:48;7.63;;;4.75;;
68457;SDS011;65384;52.016;5.428;2023-06-10T07:51:14;13.23;;;4.60;;
68457;SDS011;65384;52.016;5.428;2023-06-10T07:53:41;12.60;;;4.60;;
68457;SDS011;65384;52.016;5.428;2023-06-10T07:56:07;9.35;;;4.88;;
68457;SDS011;65384;52.016;5.428;2023-06-10T07:58:33;10.38;;;4.80;;
68457;SDS011;65384;52.016;5.428;2023-06-10T08:00:58;8.82;;;4.47;;
68457;SDS011;65384;52.016;5.428;2023-06-10T08:03:23;8.65;;;4.85;;
68457;SDS011;65384;52.016;5.428;2023-06-10T08:05:49;6.70;;;4.45;;
68457;SDS011;65384;52.016;5.428;2023-06-10T08:08:14;9.35;;;4.70;;
68457;SDS011;65384;52.016;5.428;2023-06-10T08:10:40;10.63;;;4.80;;
68457;SDS011;65384;52.016;5.428;2023-06-10T08:13:05;11.02;;;4.45;;
68457;SDS011;65384;52.016;5.428;2023-06-10T08:15:31;8.95;;;4.80;;
68457;SDS011;65384;52.016;5.428;2023-06-10T08:17:56;10.32;;;4.60;;
68457;SDS011;65384;52.016;5.428;2023-06-10T08:20:21;6.90;;;4.20;;
68457;SDS011;65384;52.016;5.428;2023-06-10T08:22:47;8.13;;;4.10;;
68457;SDS011;65384;52.016;5.428;2023-06-10T08:25:12;7.38;;;4.40;;
68457;SDS011;65384;52.016;5.428;2023-06-10T08:27:38;10.75;;;4.70;;
68457;SDS011;65384;52.016;5.428;2023-06-10T08:30:03;9.18;;;4.35;;
68457;SDS011;65384;52.016;5.428;2023-06-10T08:32:29;7.15;;;4.57;;
68457;SDS011;65384;52.016;5.428;2023-06-10T08:34:54;8.70;;;4.50;;
68457;SDS011;65384;52.016;5.428;2023-06-10T08:37:20;7.10;;;4.43;;
68457;SDS011;65384;52.016;5.428;2023-06-10T08:39:45;10.23;;;4.65;;
68457;SDS011;65384;52.016;5.428;2023-06-10T08:42:12;7.97;;;4.22;;
68457;SDS011;65384;52.016;5.428;2023-06-10T08:44:55;6.95;;;4.43;;
68457;SDS011;65384;52.016;5.428;2023-06-10T08:47:22;6.85;;;4.13;;
68457;SDS011;65384;52.016;5.428;2023-06-10T08:49:49;6.70;;;4.50;;
68457;SDS011;65384;52.016;5.428;2023-06-10T08:52:16;10.40;;;4.45;;
68457;SDS011;65384;52.016;5.428;2023-06-10T08:54:43;10.75;;;4.50;;
68457;SDS011;65384;52.016;5.428;2023-06-10T08:57:11;6.43;;;4.20;;
68457;SDS011;65384;52.016;5.428;2023-06-10T08:59:37;8.05;;;4.00;;
68457;SDS011;65384;52.016;5.428;2023-06-10T09:02:03;6.50;;;3.88;;
68457;SDS011;65384;52.016;5.428;2023-06-10T09:04:29;6.15;;;4.05;;
68457;SDS011;65384;52.016;5.428;2023-06-10T09:06:55;8.73;;;4.20;;
68457;SDS011;65384;52.016;5.428;2023-06-10T09:09:21;8.55;;;4.30;;
68457;SDS011;65384;52.016;5.428;2023-06-10T09:11:47;7.97;;;4.10;;
68457;SDS011;65384;52.016;5.428;2023-06-10T09:14:13;9.85;;;4.30;;
68457;SDS011;65384;52.016;5.428;2023-06-10T09:16:38;5.97;;;4.13;;
68457;SDS011;65384;52.016;5.428;2023-06-10T09:19:04;6.82;;;4.15;;
68457;SDS011;65384;52.016;5.428;2023-06-10T09:21:33;5.55;;;3.80;;
68457;SDS011;65384;52.016;5.428;2023-06-10T09:23:59;7.53;;;4.10;;
68457;SDS011;65384;52.016;5.428;2023-06-10T09:26:27;7.90;;;4.40;;
68457;SDS011;65384;52.016;5.428;2023-06-10T09:28:57;7.38;;;4.07;;
68457;SDS011;65384;52.016;5.428;2023-06-10T09:31:28;6.47;;;4.00;;
68457;SDS011;65384;52.016;5.428;2023-06-10T09:33:53;5.43;;;4.18;;
68457;SDS011;65384;52.016;5.428;2023-06-10T09:36:22;9.45;;;4.20;;
68457;SDS011;65384;52.016;5.428;2023-06-10T09:38:49;7.15;;;4.03;;
68457;SDS011;65384;52.016;5.428;2023-06-10T09:41:15;6.95;;;4.07;;
68457;SDS011;65384;52.016;5.428;2023-06-10T09:43:44;10.73;;;4.13;;
68457;SDS011;65384;52.016;5.428;2023-06-10T09:46:14;6.10;;;4.03;;
68457;SDS011;65384;52.016;5.428;2023-06-10T09:48:43;8.00;;;3.80;;
68457;SDS011;65384;52.016;5.428;2023-06-10T09:51:10;6.57;;;3.80;;
68457;SDS011;65384;52.016;5.428;2023-06-10T09:53:35;8.85;;;3.97;;
68457;SDS011;65384;52.016;5.428;2023-06-10T09:56:01;6.75;;;3.85;;
68457;SDS011;65384;52.016;5.428;2023-06-10T09:58:34;11.43;;;4.32;;
68457;SDS011;65384;52.016;5.428;2023-06-10T10:01:12;6.82;;;4.20;;
68457;SDS011;65384;52.016;5.428;2023-06-10T10:03:45;6.05;;;4.40;;
68457;SDS011;65384;52.016;5.428;2023-06-10T10:06:11;7.38;;;4.10;;
68457;SDS011;65384;52.016;5.428;2023-06-10T10:08:37;8.82;;;3.92;;
68457;SDS011;65384;52.016;5.428;2023-06-10T10:11:03;5.25;;;3.65;;
68457;SDS011;65384;52.016;5.428;2023-06-10T10:13:28;6.35;;;4.00;;
68457;SDS011;65384;52.016;5.428;2023-06-10T10:15:54;7.63;;;4.38;;
68457;SDS011;65384;52.016;5.428;2023-06-10T10:18:22;6.03;;;4.00;;
68457;SDS011;65384;52.016;5.428;2023-06-10T10:20:53;6.10;;;3.88;;
68457;SDS011;65384;52.016;5.428;2023-06-10T10:23:25;5.43;;;3.95;;
68457;SDS011;65384;52.016;5.428;2023-06-10T10:25:53;7.90;;;3.95;;
68457;SDS011;65384;52.016;5.428;2023-06-10T10:28:20;6.47;;;4.20;;
68457;SDS011;65384;52.016;5.428;2023-06-10T10:30:48;6.15;;;3.97;;
68457;SDS011;65384;52.016;5.428;2023-06-10T10:36:21;6.72;;;4.20;;
68457;SDS011;65384;52.016;5.428;2023-06-10T10:38:47;6.75;;;3.92;;
68457;SDS011;65384;52.016;5.428;2023-06-10T10:41:14;5.43;;;3.80;;
68457;SDS011;65384;52.016;5.428;2023-06-10T10:43:40;6.03;;;3.80;;
68457;SDS011;65384;52.016;5.428;2023-06-10T10:46:09;5.90;;;4.25;;
68457;SDS011;65384;52.016;5.428;2023-06-10T10:48:37;7.55;;;4.05;;
68457;SDS011;65384;52.016;5.428;2023-06-10T10:51:03;5.93;;;3.92;;
68457;SDS011;65384;52.016;5.428;2023-06-10T10:53:29;8.00;;;4.10;;
68457;SDS011;65384;52.016;5.428;2023-06-10T10:55:58;6.32;;;3.90;;
68457;SDS011;65384;52.016;5.428;2023-06-10T10:58:33;6.78;;;3.80;;
68457;SDS011;65384;52.016;5.428;2023-06-10T11:00:59;5.45;;;3.78;;
68457;SDS011;65384;52.016;5.428;2023-06-10T11:03:28;8.25;;;4.00;;
68457;SDS011;65384;52.016;5.428;2023-06-10T11:05:57;7.75;;;4.00;;
68457;SDS011;65384;52.016;5.428;2023-06-10T11:10:57;5.05;;;3.75;;
68457;SDS011;65384;52.016;5.428;2023-06-10T11:13:23;5.25;;;4.40;;
68457;SDS011;65384;52.016;5.428;2023-06-10T11:15:50;6.30;;;4.00;;
68457;SDS011;65384;52.016;5.428;2023-06-10T11:18:20;5.35;;;4.10;;
68457;SDS011;65384;52.016;5.428;2023-06-10T11:31:18;9.80;;;3.97;;
68457;SDS011;65384;52.016;5.428;2023-06-10T11:33:46;8.90;;;4.40;;
68457;SDS011;65384;52.016;5.428;2023-06-10T11:36:12;7.88;;;4.15;;
68457;SDS011;65384;52.016;5.428;2023-06-10T11:38:37;5.40;;;4.00;;
68457;SDS011;65384;52.016;5.428;2023-06-10T11:41:03;8.73;;;4.25;;
68457;SDS011;65384;52.016;5.428;2023-06-10T11:43:29;6.43;;;4.18;;
68457;SDS011;65384;52.016;5.428;2023-06-10T11:45:55;9.80;;;4.20;;
68457;SDS011;65384;52.016;5.428;2023-06-10T11:48:23;6.95;;;4.32;;
68457;SDS011;65384;52.016;5.428;2023-06-10T11:50:48;7.70;;;4.40;;
68457;SDS011;65384;52.016;5.428;2023-06-10T11:53:13;12.27;;;4.30;;
68457;SDS011;65384;52.016;5.428;2023-06-10T11:55:42;6.00;;;3.90;;
68457;SDS011;65384;52.016;5.428;2023-06-10T11:58:22;6.63;;;4.18;;
68457;SDS011;65384;52.016;5.428;2023-06-10T12:00:51;6.20;;;3.95;;
68457;SDS011;65384;52.016;5.428;2023-06-10T12:03:23;11.13;;;3.95;;
68457;SDS011;65384;52.016;5.428;2023-06-10T12:06:01;5.40;;;4.10;;
68457;SDS011;65384;52.016;5.428;2023-06-10T12:08:29;8.83;;;4.40;;
68457;SDS011;65384;52.016;5.428;2023-06-10T12:10:54;6.18;;;4.40;;
68457;SDS011;65384;52.016;5.428;2023-06-10T12:13:21;4.70;;;3.88;;
68457;SDS011;65384;52.016;5.428;2023-06-10T12:15:46;6.97;;;4.07;;
68457;SDS011;65384;52.016;5.428;2023-06-10T12:18:22;6.60;;;4.20;;
68457;SDS011;65384;52.016;5.428;2023-06-10T12:20:48;6.90;;;4.45;;
68457;SDS011;65384;52.016;5.428;2023-06-10T12:23:14;7.57;;;4.47;;
68457;SDS011;65384;52.016;5.428;2023-06-10T12:25:49;5.53;;;4.20;;
68457;SDS011;65384;52.016;5.428;2023-06-10T12:28:16;6.80;;;4.18;;
68457;SDS011;65384;52.016;5.428;2023-06-10T12:30:42;5.47;;;4.20;;
68457;SDS011;65384;52.016;5.428;2023-06-10T12:33:15;5.97;;;4.00;;
68457;SDS011;65384;52.016;5.428;2023-06-10T12:35:46;7.43;;;4.20;;
68457;SDS011;65384;52.016;5.428;2023-06-10T12:38:25;8.38;;;4.20;;
68457;SDS011;65384;52.016;5.428;2023-06-10T12:40:54;6.45;;;4.32;;
68457;SDS011;65384;52.016;5.428;2023-06-10T12:43:22;6.55;;;4.00;;
68457;SDS011;65384;52.016;5.428;2023-06-10T12:45:48;6.28;;;4.22;;
68457;SDS011;65384;52.016;5.428;2023-06-10T12:48:17;6.75;;;4.13;;
68457;SDS011;65384;52.016;5.428;2023-06-10T12:50:44;6.33;;;4.30;;
68457;SDS011;65384;52.016;5.428;2023-06-10T12:53:15;5.57;;;4.20;;
68457;SDS011;65384;52.016;5.428;2023-06-10T12:55:40;5.22;;;4.20;;
68457;SDS011;65384;52.016;5.428;2023-06-10T12:58:05;6.13;;;4.50;;
68457;SDS011;65384;52.016;5.428;2023-06-10T13:00:31;5.93;;;4.00;;
68457;SDS011;65384;52.016;5.428;2023-06-10T13:02:56;5.57;;;4.30;;
68457;SDS011;65384;52.016;5.428;2023-06-10T13:05:25;8.18;;;4.63;;
68457;SDS011;65384;52.016;5.428;2023-06-10T13:07:50;8.18;;;4.20;;
68457;SDS011;65384;52.016;5.428;2023-06-10T13:10:16;6.80;;;4.53;;
68457;SDS011;65384;52.016;5.428;2023-06-10T13:12:42;5.85;;;4.00;;
68457;SDS011;65384;52.016;5.428;2023-06-10T13:15:07;8.98;;;4.38;;
68457;SDS011;65384;52.016;5.428;2023-06-10T13:17:33;7.50;;;4.60;;
68457;SDS011;65384;52.016;5.428;2023-06-10T13:20:00;6.05;;;4.40;;
68457;SDS011;65384;52.016;5.428;2023-06-10T13:22:28;6.07;;;4.50;;
68457;SDS011;65384;52.016;5.428;2023-06-10T13:24:53;9.68;;;4.80;;
68457;SDS011;65384;52.016;5.428;2023-06-10T13:27:19;6.38;;;4.70;;
68457;SDS011;65384;52.016;5.428;2023-06-10T13:29:44;9.32;;;4.60;;
68457;SDS011;65384;52.016;5.428;2023-06-10T13:32:10;5.78;;;4.60;;
68457;SDS011;65384;52.016;5.428;2023-06-10T13:34:35;6.32;;;4.57;;
68457;SDS011;65384;52.016;5.428;2023-06-10T13:37:01;7.07;;;4.55;;
68457;SDS011;65384;52.016;5.428;2023-06-10T13:39:26;7.47;;;4.63;;
68457;SDS011;65384;52.016;5.428;2023-06-10T13:41:52;5.88;;;4.80;;
68457;SDS011;65384;52.016;5.428;2023-06-10T13:44:17;7.03;;;4.88;;
68457;SDS011;65384;52.016;5.428;2023-06-10T13:46:43;8.98;;;5.10;;
68457;SDS011;65384;52.016;5.428;2023-06-10T13:49:08;6.90;;;4.70;;
68457;SDS011;65384;52.016;5.428;2023-06-10T13:51:33;10.35;;;4.55;;
68457;SDS011;65384;52.016;5.428;2023-06-10T13:53:59;6.97;;;4.90;;
68457;SDS011;65384;52.016;5.428;2023-06-10T13:56:24;6.40;;;4.90;;
68457;SDS011;65384;52.016;5.428;2023-06-10T13:58:50;7.20;;;4.88;;
68457;SDS011;65384;52.016;5.428;2023-06-10T14:01:15;8.05;;;4.80;;
68457;SDS011;65384;52.016;5.428;2023-06-10T14:03:41;8.43;;;4.88;;
68457;SDS011;65384;52.016;5.428;2023-06-10T14:06:06;8.35;;;5.00;;
68457;SDS011;65384;52.016;5.428;2023-06-10T14:08:32;7.55;;;5.13;;
68457;SDS011;65384;52.016;5.428;2023-06-10T14:10:57;7.55;;;4.65;;
68457;SDS011;65384;52.016;5.428;2023-06-10T14:13:23;7.57;;;4.95;;
68457;SDS011;65384;52.016;5.428;2023-06-10T14:15:48;7.13;;;4.82;;
68457;SDS011;65384;52.016;5.428;2023-06-10T14:18:14;8.02;;;4.75;;
68457;SDS011;65384;52.016;5.428;2023-06-10T14:20:40;7.10;;;5.10;;
68457;SDS011;65384;52.016;5.428;2023-06-10T14:23:05;6.85;;;4.90;;
68457;SDS011;65384;52.016;5.428;2023-06-10T14:25:30;9.00;;;4.35;;
68457;SDS011;65384;52.016;5.428;2023-06-10T14:27:56;8.50;;;4.32;;
68457;SDS011;65384;52.016;5.428;2023-06-10T14:30:22;7.90;;;4.47;;
68457;SDS011;65384;52.016;5.428;2023-06-10T14:32:48;6.85;;;4.60;;
68457;SDS011;65384;52.016;5.428;2023-06-10T14:35:13;5.40;;;4.43;;
68457;SDS011;65384;52.016;5.428;2023-06-10T14:37:38;7.05;;;4.57;;
68457;SDS011;65384;52.016;5.428;2023-06-10T14:40:04;9.20;;;4.50;;
68457;SDS011;65384;52.016;5.428;2023-06-10T14:42:30;6.40;;;4.50;;
68457;SDS011;65384;52.016;5.428;2023-06-10T14:44:57;5.50;;;4.43;;
68457;SDS011;65384;52.016;5.428;2023-06-10T14:47:22;7.28;;;4.80;;
68457;SDS011;65384;52.016;5.428;2023-06-10T14:49:48;7.15;;;4.80;;
68457;SDS011;65384;52.016;5.428;2023-06-10T14:52:13;9.88;;;4.82;;
68457;SDS011;65384;52.016;5.428;2023-06-10T14:54:38;6.80;;;4.38;;
68457;SDS011;65384;52.016;5.428;2023-06-10T14:57:04;6.88;;;4.28;;
68457;SDS011;65384;52.016;5.428;2023-06-10T14:59:30;6.63;;;4.00;;